sensor_id;sensor_type;location;lat;lon;timestamp;P1;durP1;ratioP1;P2;durP2;ratioP2
22223;SDS011;11281;52.194;21.006;2023-05-02T00:01:13;7.95;;;4.30;;
22223;SDS011;11281;52.194;21.006;2023-05-02T00:05:14;7.05;;;4.72;;
22223;SDS011;11281;52.194;21.006;2023-05-02T00:09:16;7.97;;;3.80;;
22223;SDS011;11281;52.194;21.006;2023-05-02T00:13:18;10.43;;;5.00;;
22223;SDS011;11281;52.194;21.006;2023-05-02T00:17:20;5.40;;;3.85;;
22223;SDS011;11281;52.194;21.006;2023-05-02T00:21:22;7.55;;;3.95;;
22223;SDS011;11281;52.194;21.006;2023-05-02T00:25:24;9.55;;;4.13;;
22223;SDS011;11281;52.194;21.006;2023-05-02T00:29:26;6.20;;;4.10;;
22223;SDS011;11281;52.194;21.006;2023-05-02T00:33:28;7.70;;;4.28;;
22223;SDS011;11281;52.194;21.006;2023-05-02T00:37:29;7.40;;;3.88;;
22223;SDS011;11281;52.194;21.006;2023-05-02T00:41:31;9.85;;;5.20;;
22223;SDS011;11281;52.194;21.006;2023-05-02T00:45:33;7.53;;;4.35;;
22223;SDS011;11281;52.194;21.006;2023-05-02T00:49:35;8.93;;;4.30;;
22223;SDS011;11281;52.194;21.006;2023-05-02T00:53:36;8.10;;;4.53;;
22223;SDS011;11281;52.194;21.006;2023-05-02T00:57:37;7.35;;;4.20;;
22223;SDS011;11281;52.194;21.006;2023-05-02T01:01:47;5.95;;;3.90;;
22223;SDS011;11281;52.194;21.006;2023-05-02T01:11:13;9.50;;;4.20;;
22223;SDS011;11281;52.194;21.006;2023-05-02T01:15:23;14.77;;;4.55;;
22223;SDS011;11281;52.194;21.006;2023-05-02T01:19:37;8.27;;;5.00;;
22223;SDS011;11281;52.194;21.006;2023-05-02T01:23:56;6.68;;;3.83;;
22223;SDS011;11281;52.194;21.006;2023-05-02T01:32:11;6.20;;;4.05;;
22223;SDS011;11281;52.194;21.006;2023-05-02T01:36:16;7.95;;;4.85;;
22223;SDS011;11281;52.194;21.006;2023-05-02T01:40:19;5.82;;;3.60;;
22223;SDS011;11281;52.194;21.006;2023-05-02T01:44:23;8.38;;;4.43;;
22223;SDS011;11281;52.194;21.006;2023-05-02T01:48:26;12.30;;;4.22;;
22223;SDS011;11281;52.194;21.006;2023-05-02T01:52:28;5.97;;;4.18;;
22223;SDS011;11281;52.194;21.006;2023-05-02T01:56:30;9.63;;;4.32;;
22223;SDS011;11281;52.194;21.006;2023-05-02T02:00:36;8.70;;;4.40;;
22223;SDS011;11281;52.194;21.006;2023-05-02T02:04:39;6.53;;;4.05;;
22223;SDS011;11281;52.194;21.006;2023-05-02T02:08:42;7.95;;;4.28;;
22223;SDS011;11281;52.194;21.006;2023-05-02T02:12:47;5.90;;;3.70;;
22223;SDS011;11281;52.194;21.006;2023-05-02T02:16:54;7.55;;;4.03;;
22223;SDS011;11281;52.194;21.006;2023-05-02T02:21:01;6.53;;;3.65;;
22223;SDS011;11281;52.194;21.006;2023-05-02T02:25:10;10.18;;;3.67;;
22223;SDS011;11281;52.194;21.006;2023-05-02T02:29:14;6.65;;;4.15;;
22223;SDS011;11281;52.194;21.006;2023-05-02T02:33:16;8.70;;;4.22;;
22223;SDS011;11281;52.194;21.006;2023-05-02T02:37:23;8.38;;;4.00;;
22223;SDS011;11281;52.194;21.006;2023-05-02T02:41:32;8.38;;;4.47;;
22223;SDS011;11281;52.194;21.006;2023-05-02T02:45:45;7.60;;;4.53;;
22223;SDS011;11281;52.194;21.006;2023-05-02T02:50:31;10.98;;;4.15;;
22223;SDS011;11281;52.194;21.006;2023-05-02T02:55:00;10.53;;;4.20;;
22223;SDS011;11281;52.194;21.006;2023-05-02T03:03:24;6.65;;;3.58;;
22223;SDS011;11281;52.194;21.006;2023-05-02T03:07:28;8.65;;;4.53;;
22223;SDS011;11281;52.194;21.006;2023-05-02T03:11:31;8.32;;;3.95;;
22223;SDS011;11281;52.194;21.006;2023-05-02T03:19:52;7.70;;;3.35;;
22223;SDS011;11281;52.194;21.006;2023-05-02T03:23:54;8.15;;;4.07;;
22223;SDS011;11281;52.194;21.006;2023-05-02T03:27:56;5.90;;;3.75;;
22223;SDS011;11281;52.194;21.006;2023-05-02T03:31:58;7.85;;;3.47;;
22223;SDS011;11281;52.194;21.006;2023-05-02T03:35:59;7.38;;;3.58;;
22223;SDS011;11281;52.194;21.006;2023-05-02T03:40:01;9.75;;;4.65;;
22223;SDS011;11281;52.194;21.006;2023-05-02T03:44:03;7.32;;;3.95;;
22223;SDS011;11281;52.194;21.006;2023-05-02T03:48:06;7.93;;;3.90;;
22223;SDS011;11281;52.194;21.006;2023-05-02T03:52:09;5.95;;;4.25;;
22223;SDS011;11281;52.194;21.006;2023-05-02T03:56:10;7.10;;;4.07;;
22223;SDS011;11281;52.194;21.006;2023-05-02T04:00:12;5.47;;;3.85;;
22223;SDS011;11281;52.194;21.006;2023-05-02T04:04:14;8.80;;;4.43;;
22223;SDS011;11281;52.194;21.006;2023-05-02T04:08:16;10.65;;;4.85;;
22223;SDS011;11281;52.194;21.006;2023-05-02T04:12:19;5.80;;;4.20;;
22223;SDS011;11281;52.194;21.006;2023-05-02T04:16:21;7.22;;;3.58;;
22223;SDS011;11281;52.194;21.006;2023-05-02T04:20:22;8.15;;;4.43;;
22223;SDS011;11281;52.194;21.006;2023-05-02T04:24:24;9.52;;;4.57;;
22223;SDS011;11281;52.194;21.006;2023-05-02T04:28:26;7.63;;;4.40;;
22223;SDS011;11281;52.194;21.006;2023-05-02T04:32:28;6.80;;;4.57;;
22223;SDS011;11281;52.194;21.006;2023-05-02T04:36:30;6.85;;;3.78;;
22223;SDS011;11281;52.194;21.006;2023-05-02T04:40:32;11.07;;;3.92;;
22223;SDS011;11281;52.194;21.006;2023-05-02T04:44:34;6.68;;;3.85;;
22223;SDS011;11281;52.194;21.006;2023-05-02T04:48:36;7.70;;;4.07;;
22223;SDS011;11281;52.194;21.006;2023-05-02T04:52:42;8.38;;;4.30;;
22223;SDS011;11281;52.194;21.006;2023-05-02T04:56:44;9.43;;;4.70;;
22223;SDS011;11281;52.194;21.006;2023-05-02T05:00:46;6.55;;;3.38;;
22223;SDS011;11281;52.194;21.006;2023-05-02T05:04:48;6.78;;;4.10;;
22223;SDS011;11281;52.194;21.006;2023-05-02T05:08:50;10.30;;;3.80;;
22223;SDS011;11281;52.194;21.006;2023-05-02T05:12:52;7.20;;;4.28;;
22223;SDS011;11281;52.194;21.006;2023-05-02T05:16:53;10.57;;;4.22;;
22223;SDS011;11281;52.194;21.006;2023-05-02T05:20:55;8.85;;;4.40;;
22223;SDS011;11281;52.194;21.006;2023-05-02T05:24:57;8.30;;;3.95;;
22223;SDS011;11281;52.194;21.006;2023-05-02T05:28:59;7.85;;;4.35;;
22223;SDS011;11281;52.194;21.006;2023-05-02T05:33:01;9.00;;;4.47;;
22223;SDS011;11281;52.194;21.006;2023-05-02T05:37:03;9.02;;;3.97;;
22223;SDS011;11281;52.194;21.006;2023-05-02T05:41:05;8.35;;;4.07;;
22223;SDS011;11281;52.194;21.006;2023-05-02T05:45:08;7.22;;;3.97;;
22223;SDS011;11281;52.194;21.006;2023-05-02T05:49:11;8.15;;;3.70;;
22223;SDS011;11281;52.194;21.006;2023-05-02T05:53:13;5.45;;;3.88;;
22223;SDS011;11281;52.194;21.006;2023-05-02T05:57:15;6.05;;;3.97;;
22223;SDS011;11281;52.194;21.006;2023-05-02T06:01:17;9.57;;;4.00;;
22223;SDS011;11281;52.194;21.006;2023-05-02T06:05:19;8.40;;;3.88;;
22223;SDS011;11281;52.194;21.006;2023-05-02T06:09:21;7.95;;;3.92;;
22223;SDS011;11281;52.194;21.006;2023-05-02T06:13:22;12.70;;;3.72;;
22223;SDS011;11281;52.194;21.006;2023-05-02T06:17:25;6.88;;;3.85;;
22223;SDS011;11281;52.194;21.006;2023-05-02T06:21:26;5.60;;;3.25;;
22223;SDS011;11281;52.194;21.006;2023-05-02T06:25:28;6.80;;;3.72;;
22223;SDS011;11281;52.194;21.006;2023-05-02T06:29:31;6.97;;;3.30;;
22223;SDS011;11281;52.194;21.006;2023-05-02T06:33:33;7.82;;;3.55;;
22223;SDS011;11281;52.194;21.006;2023-05-02T06:37:35;5.38;;;3.90;;
22223;SDS011;11281;52.194;21.006;2023-05-02T06:41:36;7.03;;;3.75;;
22223;SDS011;11281;52.194;21.006;2023-05-02T06:45:38;3.67;;;2.88;;
22223;SDS011;11281;52.194;21.006;2023-05-02T06:49:40;6.68;;;2.95;;
22223;SDS011;11281;52.194;21.006;2023-05-02T06:53:42;7.53;;;3.15;;
22223;SDS011;11281;52.194;21.006;2023-05-02T06:57:44;13.35;;;3.25;;
22223;SDS011;11281;52.194;21.006;2023-05-02T07:01:46;4.97;;;2.83;;
22223;SDS011;11281;52.194;21.006;2023-05-02T07:05:48;5.03;;;2.92;;
22223;SDS011;11281;52.194;21.006;2023-05-02T07:09:50;5.43;;;2.95;;
22223;SDS011;11281;52.194;21.006;2023-05-02T07:13:52;5.07;;;3.28;;
22223;SDS011;11281;52.194;21.006;2023-05-02T07:17:54;6.93;;;2.97;;
22223;SDS011;11281;52.194;21.006;2023-05-02T07:21:56;8.40;;;3.45;;
22223;SDS011;11281;52.194;21.006;2023-05-02T07:25:57;12.27;;;3.10;;
22223;SDS011;11281;52.194;21.006;2023-05-02T07:29:59;7.50;;;3.08;;
22223;SDS011;11281;52.194;21.006;2023-05-02T07:34:01;5.03;;;2.42;;
22223;SDS011;11281;52.194;21.006;2023-05-02T07:38:02;5.68;;;3.33;;
22223;SDS011;11281;52.194;21.006;2023-05-02T07:42:04;6.13;;;2.53;;
22223;SDS011;11281;52.194;21.006;2023-05-02T07:46:06;5.50;;;3.00;;
22223;SDS011;11281;52.194;21.006;2023-05-02T07:50:08;5.00;;;2.60;;
22223;SDS011;11281;52.194;21.006;2023-05-02T07:54:17;3.60;;;2.13;;
22223;SDS011;11281;52.194;21.006;2023-05-02T07:58:20;2.80;;;1.98;;
22223;SDS011;11281;52.194;21.006;2023-05-02T08:02:22;2.42;;;1.90;;
22223;SDS011;11281;52.194;21.006;2023-05-02T08:06:23;3.88;;;2.53;;
22223;SDS011;11281;52.194;21.006;2023-05-02T08:10:25;3.30;;;2.05;;
22223;SDS011;11281;52.194;21.006;2023-05-02T08:14:27;3.55;;;2.28;;
22223;SDS011;11281;52.194;21.006;2023-05-02T08:18:29;2.20;;;1.92;;
22223;SDS011;11281;52.194;21.006;2023-05-02T08:22:30;2.45;;;1.73;;
22223;SDS011;11281;52.194;21.006;2023-05-02T08:26:32;4.40;;;2.65;;
22223;SDS011;11281;52.194;21.006;2023-05-02T08:30:33;3.72;;;1.90;;
22223;SDS011;11281;52.194;21.006;2023-05-02T08:34:35;5.50;;;2.60;;
22223;SDS011;11281;52.194;21.006;2023-05-02T08:38:36;7.65;;;2.85;;
22223;SDS011;11281;52.194;21.006;2023-05-02T08:42:40;4.63;;;2.28;;
22223;SDS011;11281;52.194;21.006;2023-05-02T08:46:44;3.83;;;2.25;;
22223;SDS011;11281;52.194;21.006;2023-05-02T08:50:47;5.88;;;2.50;;
22223;SDS011;11281;52.194;21.006;2023-05-02T08:54:50;3.03;;;2.38;;
22223;SDS011;11281;52.194;21.006;2023-05-02T08:58:52;3.58;;;2.60;;
22223;SDS011;11281;52.194;21.006;2023-05-02T09:07:19;6.32;;;2.92;;
22223;SDS011;11281;52.194;21.006;2023-05-02T09:11:21;4.32;;;3.00;;
22223;SDS011;11281;52.194;21.006;2023-05-02T09:15:23;6.07;;;4.05;;
22223;SDS011;11281;52.194;21.006;2023-05-02T09:19:25;7.03;;;3.00;;
22223;SDS011;11281;52.194;21.006;2023-05-02T09:23:34;6.07;;;2.50;;
22223;SDS011;11281;52.194;21.006;2023-05-02T09:27:48;4.75;;;3.33;;
22223;SDS011;11281;52.194;21.006;2023-05-02T09:31:51;9.75;;;3.45;;
22223;SDS011;11281;52.194;21.006;2023-05-02T09:35:53;6.28;;;3.30;;
22223;SDS011;11281;52.194;21.006;2023-05-02T09:40:04;4.13;;;2.72;;
22223;SDS011;11281;52.194;21.006;2023-05-02T09:44:11;5.30;;;2.90;;
22223;SDS011;11281;52.194;21.006;2023-05-02T09:48:15;3.92;;;2.58;;
22223;SDS011;11281;52.194;21.006;2023-05-02T09:52:17;5.03;;;2.60;;
22223;SDS011;11281;52.194;21.006;2023-05-02T09:56:23;5.05;;;2.88;;
22223;SDS011;11281;52.194;21.006;2023-05-02T10:00:38;5.22;;;3.13;;
22223;SDS011;11281;52.194;21.006;2023-05-02T10:04:40;5.30;;;3.22;;
22223;SDS011;11281;52.194;21.006;2023-05-02T10:08:42;11.68;;;5.22;;
22223;SDS011;11281;52.194;21.006;2023-05-02T10:12:47;6.13;;;3.83;;
22223;SDS011;11281;52.194;21.006;2023-05-02T10:17:07;10.68;;;4.70;;
22223;SDS011;11281;52.194;21.006;2023-05-02T10:21:15;8.43;;;4.47;;
22223;SDS011;11281;52.194;21.006;2023-05-02T10:25:28;12.02;;;4.72;;
22223;SDS011;11281;52.194;21.006;2023-05-02T10:29:30;8.32;;;4.80;;
22223;SDS011;11281;52.194;21.006;2023-05-02T10:33:32;12.80;;;6.80;;
22223;SDS011;11281;52.194;21.006;2023-05-02T10:37:35;6.97;;;4.13;;
22223;SDS011;11281;52.194;21.006;2023-05-02T10:41:39;7.47;;;4.82;;
22223;SDS011;11281;52.194;21.006;2023-05-02T10:45:42;8.05;;;4.78;;
22223;SDS011;11281;52.194;21.006;2023-05-02T10:49:50;7.65;;;4.80;;
22223;SDS011;11281;52.194;21.006;2023-05-02T10:54:41;9.57;;;4.32;;
22223;SDS011;11281;52.194;21.006;2023-05-02T10:58:20;6.50;;;4.53;;
22223;SDS011;11281;52.194;21.006;2023-05-02T11:06:25;9.10;;;4.82;;
22223;SDS011;11281;52.194;21.006;2023-05-02T11:10:34;9.10;;;5.10;;
22223;SDS011;11281;52.194;21.006;2023-05-02T11:35:40;13.30;;;6.45;;
22223;SDS011;11281;52.194;21.006;2023-05-02T11:39:43;10.98;;;5.95;;
22223;SDS011;11281;52.194;21.006;2023-05-02T11:43:47;7.72;;;5.10;;
22223;SDS011;11281;52.194;21.006;2023-05-02T11:47:49;8.52;;;5.85;;
22223;SDS011;11281;52.194;21.006;2023-05-02T11:56:23;9.85;;;4.50;;
22223;SDS011;11281;52.194;21.006;2023-05-02T12:00:27;5.97;;;4.35;;
22223;SDS011;11281;52.194;21.006;2023-05-02T12:04:29;5.78;;;4.00;;
22223;SDS011;11281;52.194;21.006;2023-05-02T12:08:31;5.47;;;3.55;;
22223;SDS011;11281;52.194;21.006;2023-05-02T12:12:32;5.38;;;3.63;;
22223;SDS011;11281;52.194;21.006;2023-05-02T12:16:34;4.00;;;3.13;;
22223;SDS011;11281;52.194;21.006;2023-05-02T12:20:36;7.13;;;3.75;;
22223;SDS011;11281;52.194;21.006;2023-05-02T12:24:38;5.90;;;3.30;;
22223;SDS011;11281;52.194;21.006;2023-05-02T12:28:47;7.32;;;4.00;;
22223;SDS011;11281;52.194;21.006;2023-05-02T12:32:55;4.82;;;2.97;;
22223;SDS011;11281;52.194;21.006;2023-05-02T12:37:01;9.90;;;2.85;;
22223;SDS011;11281;52.194;21.006;2023-05-02T12:41:04;6.20;;;3.25;;
22223;SDS011;11281;52.194;21.006;2023-05-02T12:45:16;4.70;;;3.20;;
22223;SDS011;11281;52.194;21.006;2023-05-02T12:49:18;3.58;;;3.13;;
22223;SDS011;11281;52.194;21.006;2023-05-02T12:57:42;9.15;;;3.30;;
22223;SDS011;11281;52.194;21.006;2023-05-02T13:01:44;4.05;;;3.28;;
22223;SDS011;11281;52.194;21.006;2023-05-02T13:05:46;8.25;;;3.90;;
22223;SDS011;11281;52.194;21.006;2023-05-02T13:09:48;3.90;;;2.65;;
22223;SDS011;11281;52.194;21.006;2023-05-02T13:13:50;6.35;;;3.10;;
22223;SDS011;11281;52.194;21.006;2023-05-02T13:17:53;3.67;;;2.78;;
22223;SDS011;11281;52.194;21.006;2023-05-02T13:21:54;4.45;;;2.50;;
22223;SDS011;11281;52.194;21.006;2023-05-02T13:25:56;7.00;;;2.80;;
22223;SDS011;11281;52.194;21.006;2023-05-02T13:29:58;8.70;;;3.75;;
22223;SDS011;11281;52.194;21.006;2023-05-02T13:34:02;21.40;;;11.65;;
22223;SDS011;11281;52.194;21.006;2023-05-02T13:38:04;7.00;;;3.15;;
22223;SDS011;11281;52.194;21.006;2023-05-02T13:42:06;6.85;;;3.58;;
22223;SDS011;11281;52.194;21.006;2023-05-02T13:46:07;6.15;;;2.90;;
22223;SDS011;11281;52.194;21.006;2023-05-02T13:50:09;8.48;;;3.05;;
22223;SDS011;11281;52.194;21.006;2023-05-02T13:54:12;5.63;;;3.13;;
22223;SDS011;11281;52.194;21.006;2023-05-02T13:58:13;6.65;;;3.47;;
22223;SDS011;11281;52.194;21.006;2023-05-02T14:02:16;4.90;;;2.83;;
22223;SDS011;11281;52.194;21.006;2023-05-02T14:06:17;5.30;;;3.33;;
22223;SDS011;11281;52.194;21.006;2023-05-02T14:10:19;6.47;;;3.10;;
22223;SDS011;11281;52.194;21.006;2023-05-02T14:14:21;4.65;;;2.95;;
22223;SDS011;11281;52.194;21.006;2023-05-02T14:18:23;5.18;;;3.50;;
22223;SDS011;11281;52.194;21.006;2023-05-02T14:22:25;5.35;;;3.25;;
22223;SDS011;11281;52.194;21.006;2023-05-02T14:26:26;7.18;;;3.80;;
22223;SDS011;11281;52.194;21.006;2023-05-02T14:30:29;5.20;;;3.75;;
22223;SDS011;11281;52.194;21.006;2023-05-02T14:34:31;4.72;;;3.63;;
22223;SDS011;11281;52.194;21.006;2023-05-02T14:38:33;7.45;;;3.83;;
22223;SDS011;11281;52.194;21.006;2023-05-02T14:42:35;6.30;;;3.80;;
22223;SDS011;11281;52.194;21.006;2023-05-02T14:46:36;6.10;;;3.92;;
22223;SDS011;11281;52.194;21.006;2023-05-02T14:50:38;4.90;;;3.40;;
22223;SDS011;11281;52.194;21.006;2023-05-02T14:54:41;7.47;;;3.58;;
22223;SDS011;11281;52.194;21.006;2023-05-02T14:58:42;5.95;;;4.00;;
22223;SDS011;11281;52.194;21.006;2023-05-02T15:02:44;5.60;;;3.40;;
22223;SDS011;11281;52.194;21.006;2023-05-02T15:06:45;4.55;;;3.47;;
22223;SDS011;11281;52.194;21.006;2023-05-02T15:10:47;6.22;;;4.22;;
22223;SDS011;11281;52.194;21.006;2023-05-02T15:14:49;8.50;;;4.07;;
22223;SDS011;11281;52.194;21.006;2023-05-02T15:18:51;6.22;;;3.65;;
22223;SDS011;11281;52.194;21.006;2023-05-02T15:22:53;6.32;;;3.33;;
22223;SDS011;11281;52.194;21.006;2023-05-02T15:26:55;7.65;;;3.45;;
22223;SDS011;11281;52.194;21.006;2023-05-02T15:30:57;7.90;;;3.50;;
22223;SDS011;11281;52.194;21.006;2023-05-02T15:34:59;4.00;;;2.85;;
22223;SDS011;11281;52.194;21.006;2023-05-02T15:39:01;3.63;;;3.10;;
22223;SDS011;11281;52.194;21.006;2023-05-02T15:43:04;5.85;;;3.45;;
22223;SDS011;11281;52.194;21.006;2023-05-02T15:47:05;5.28;;;3.22;;
22223;SDS011;11281;52.194;21.006;2023-05-02T15:51:07;5.95;;;3.20;;
22223;SDS011;11281;52.194;21.006;2023-05-02T15:55:11;5.32;;;2.92;;
22223;SDS011;11281;52.194;21.006;2023-05-02T15:59:13;5.45;;;2.88;;
22223;SDS011;11281;52.194;21.006;2023-05-02T16:03:15;7.10;;;3.30;;
22223;SDS011;11281;52.194;21.006;2023-05-02T16:07:16;6.40;;;3.08;;
22223;SDS011;11281;52.194;21.006;2023-05-02T16:11:18;5.57;;;3.10;;
22223;SDS011;11281;52.194;21.006;2023-05-02T16:15:20;7.90;;;3.38;;
22223;SDS011;11281;52.194;21.006;2023-05-02T16:19:22;7.43;;;3.30;;
22223;SDS011;11281;52.194;21.006;2023-05-02T16:23:24;6.80;;;3.10;;
22223;SDS011;11281;52.194;21.006;2023-05-02T16:27:27;4.63;;;3.05;;
22223;SDS011;11281;52.194;21.006;2023-05-02T16:31:28;5.70;;;3.10;;
22223;SDS011;11281;52.194;21.006;2023-05-02T16:35:30;10.50;;;3.28;;
22223;SDS011;11281;52.194;21.006;2023-05-02T16:39:32;6.03;;;3.22;;
22223;SDS011;11281;52.194;21.006;2023-05-02T16:43:34;4.47;;;3.40;;
22223;SDS011;11281;52.194;21.006;2023-05-02T16:47:37;4.20;;;2.83;;
22223;SDS011;11281;52.194;21.006;2023-05-02T16:51:39;5.55;;;3.42;;
22223;SDS011;11281;52.194;21.006;2023-05-02T16:55:40;8.38;;;3.30;;
22223;SDS011;11281;52.194;21.006;2023-05-02T16:59:42;5.80;;;3.85;;
22223;SDS011;11281;52.194;21.006;2023-05-02T17:03:44;8.93;;;3.63;;
22223;SDS011;11281;52.194;21.006;2023-05-02T17:07:46;4.43;;;3.10;;
22223;SDS011;11281;52.194;21.006;2023-05-02T17:11:48;7.18;;;3.47;;
22223;SDS011;11281;52.194;21.006;2023-05-02T17:15:50;5.20;;;3.67;;
22223;SDS011;11281;52.194;21.006;2023-05-02T17:19:53;6.95;;;3.15;;
22223;SDS011;11281;52.194;21.006;2023-05-02T17:23:55;4.78;;;3.05;;
22223;SDS011;11281;52.194;21.006;2023-05-02T17:27:57;4.13;;;3.00;;
22223;SDS011;11281;52.194;21.006;2023-05-02T17:31:59;4.50;;;3.28;;
22223;SDS011;11281;52.194;21.006;2023-05-02T17:36:01;6.43;;;3.88;;
22223;SDS011;11281;52.194;21.006;2023-05-02T17:40:05;5.63;;;3.45;;
22223;SDS011;11281;52.194;21.006;2023-05-02T17:44:07;7.82;;;3.40;;
22223;SDS011;11281;52.194;21.006;2023-05-02T17:48:09;8.85;;;3.75;;
22223;SDS011;11281;52.194;21.006;2023-05-02T17:52:11;5.70;;;3.20;;
22223;SDS011;11281;52.194;21.006;2023-05-02T17:56:13;5.72;;;3.83;;
22223;SDS011;11281;52.194;21.006;2023-05-02T18:00:18;6.20;;;4.00;;
22223;SDS011;11281;52.194;21.006;2023-05-02T18:04:20;9.00;;;4.18;;
22223;SDS011;11281;52.194;21.006;2023-05-02T18:08:21;8.23;;;3.83;;
22223;SDS011;11281;52.194;21.006;2023-05-02T18:12:23;8.50;;;3.53;;
22223;SDS011;11281;52.194;21.006;2023-05-02T18:16:24;6.25;;;4.20;;
22223;SDS011;11281;52.194;21.006;2023-05-02T18:20:27;8.48;;;4.68;;
22223;SDS011;11281;52.194;21.006;2023-05-02T18:24:29;10.40;;;4.35;;
22223;SDS011;11281;52.194;21.006;2023-05-02T18:28:32;10.70;;;5.63;;
22223;SDS011;11281;52.194;21.006;2023-05-02T18:32:34;10.25;;;5.38;;
22223;SDS011;11281;52.194;21.006;2023-05-02T18:36:36;13.18;;;6.05;;
22223;SDS011;11281;52.194;21.006;2023-05-02T18:40:39;9.10;;;4.82;;
22223;SDS011;11281;52.194;21.006;2023-05-02T18:44:41;6.65;;;5.28;;
22223;SDS011;11281;52.194;21.006;2023-05-02T18:48:43;9.00;;;4.70;;
22223;SDS011;11281;52.194;21.006;2023-05-02T18:52:45;11.75;;;6.55;;
22223;SDS011;11281;52.194;21.006;2023-05-02T18:56:46;9.40;;;5.68;;
22223;SDS011;11281;52.194;21.006;2023-05-02T19:00:49;9.30;;;5.25;;
22223;SDS011;11281;52.194;21.006;2023-05-02T19:04:51;10.48;;;5.53;;
22223;SDS011;11281;52.194;21.006;2023-05-02T19:08:53;8.80;;;4.68;;
22223;SDS011;11281;52.194;21.006;2023-05-02T19:12:55;8.25;;;4.65;;
22223;SDS011;11281;52.194;21.006;2023-05-02T19:16:57;9.98;;;4.85;;
22223;SDS011;11281;52.194;21.006;2023-05-02T19:21:06;9.63;;;4.88;;
22223;SDS011;11281;52.194;21.006;2023-05-02T19:25:12;10.32;;;5.45;;
22223;SDS011;11281;52.194;21.006;2023-05-02T19:29:14;13.07;;;5.32;;
22223;SDS011;11281;52.194;21.006;2023-05-02T19:33:15;10.05;;;5.47;;
22223;SDS011;11281;52.194;21.006;2023-05-02T19:37:17;8.60;;;5.28;;
22223;SDS011;11281;52.194;21.006;2023-05-02T19:41:19;13.98;;;5.55;;
22223;SDS011;11281;52.194;21.006;2023-05-02T19:45:24;9.48;;;4.85;;
22223;SDS011;11281;52.194;21.006;2023-05-02T19:49:26;7.88;;;5.05;;
22223;SDS011;11281;52.194;21.006;2023-05-02T19:53:29;10.98;;;5.25;;
22223;SDS011;11281;52.194;21.006;2023-05-02T19:57:32;7.57;;;4.63;;
22223;SDS011;11281;52.194;21.006;2023-05-02T20:01:33;5.13;;;3.67;;
22223;SDS011;11281;52.194;21.006;2023-05-02T20:05:35;6.85;;;4.47;;
22223;SDS011;11281;52.194;21.006;2023-05-02T20:09:36;6.80;;;3.63;;
22223;SDS011;11281;52.194;21.006;2023-05-02T20:13:38;7.57;;;3.95;;
22223;SDS011;11281;52.194;21.006;2023-05-02T20:17:40;7.05;;;4.07;;
22223;SDS011;11281;52.194;21.006;2023-05-02T20:21:41;5.35;;;3.47;;
22223;SDS011;11281;52.194;21.006;2023-05-02T20:25:43;5.82;;;2.85;;
22223;SDS011;11281;52.194;21.006;2023-05-02T20:29:44;9.15;;;4.32;;
22223;SDS011;11281;52.194;21.006;2023-05-02T20:33:46;7.60;;;3.92;;
22223;SDS011;11281;52.194;21.006;2023-05-02T20:37:47;7.55;;;3.72;;
22223;SDS011;11281;52.194;21.006;2023-05-02T20:41:50;13.20;;;4.50;;
22223;SDS011;11281;52.194;21.006;2023-05-02T20:45:52;5.32;;;3.45;;
22223;SDS011;11281;52.194;21.006;2023-05-02T20:49:53;8.35;;;3.28;;
22223;SDS011;11281;52.194;21.006;2023-05-02T20:53:56;5.68;;;3.03;;
22223;SDS011;11281;52.194;21.006;2023-05-02T20:57:59;5.75;;;3.80;;
22223;SDS011;11281;52.194;21.006;2023-05-02T21:02:00;5.45;;;3.33;;
22223;SDS011;11281;52.194;21.006;2023-05-02T21:06:02;7.18;;;3.47;;
22223;SDS011;11281;52.194;21.006;2023-05-02T21:10:04;5.00;;;3.25;;
22223;SDS011;11281;52.194;21.006;2023-05-02T21:14:08;5.03;;;3.65;;
22223;SDS011;11281;52.194;21.006;2023-05-02T21:18:11;7.65;;;3.67;;
22223;SDS011;11281;52.194;21.006;2023-05-02T21:22:13;6.50;;;3.03;;
22223;SDS011;11281;52.194;21.006;2023-05-02T21:26:14;5.20;;;3.60;;
22223;SDS011;11281;52.194;21.006;2023-05-02T21:30:16;6.93;;;3.72;;
22223;SDS011;11281;52.194;21.006;2023-05-02T21:34:18;8.73;;;3.70;;
22223;SDS011;11281;52.194;21.006;2023-05-02T21:38:19;9.48;;;3.70;;
22223;SDS011;11281;52.194;21.006;2023-05-02T21:42:21;6.13;;;4.57;;
22223;SDS011;11281;52.194;21.006;2023-05-02T21:46:23;6.90;;;3.97;;
22223;SDS011;11281;52.194;21.006;2023-05-02T21:50:25;7.43;;;4.03;;
22223;SDS011;11281;52.194;21.006;2023-05-02T21:54:26;6.28;;;3.72;;
22223;SDS011;11281;52.194;21.006;2023-05-02T21:58:27;5.82;;;3.65;;
22223;SDS011;11281;52.194;21.006;2023-05-02T22:02:29;7.35;;;3.83;;
22223;SDS011;11281;52.194;21.006;2023-05-02T22:06:31;9.05;;;3.78;;
22223;SDS011;11281;52.194;21.006;2023-05-02T22:10:33;13.30;;;5.68;;
22223;SDS011;11281;52.194;21.006;2023-05-02T22:14:36;6.90;;;3.85;;
22223;SDS011;11281;52.194;21.006;2023-05-02T22:18:38;3.65;;;3.17;;
22223;SDS011;11281;52.194;21.006;2023-05-02T22:22:39;7.25;;;3.72;;
22223;SDS011;11281;52.194;21.006;2023-05-02T22:26:41;5.80;;;3.28;;
22223;SDS011;11281;52.194;21.006;2023-05-02T22:30:43;7.22;;;4.00;;
22223;SDS011;11281;52.194;21.006;2023-05-02T22:34:44;5.00;;;3.03;;
22223;SDS011;11281;52.194;21.006;2023-05-02T22:38:46;4.72;;;2.53;;
22223;SDS011;11281;52.194;21.006;2023-05-02T22:42:48;2.25;;;2.05;;
22223;SDS011;11281;52.194;21.006;2023-05-02T22:46:50;4.18;;;2.10;;
22223;SDS011;11281;52.194;21.006;2023-05-02T22:50:52;5.75;;;2.72;;
22223;SDS011;11281;52.194;21.006;2023-05-02T22:54:58;3.92;;;2.03;;
22223;SDS011;11281;52.194;21.006;2023-05-02T22:59:00;2.88;;;1.90;;
22223;SDS011;11281;52.194;21.006;2023-05-02T23:03:01;4.72;;;2.00;;
22223;SDS011;11281;52.194;21.006;2023-05-02T23:07:03;4.13;;;2.17;;
22223;SDS011;11281;52.194;21.006;2023-05-02T23:11:05;3.00;;;1.95;;
22223;SDS011;11281;52.194;21.006;2023-05-02T23:15:32;3.97;;;2.28;;
22223;SDS011;11281;52.194;21.006;2023-05-02T23:19:34;5.57;;;2.38;;
22223;SDS011;11281;52.194;21.006;2023-05-02T23:23:35;2.97;;;2.00;;
22223;SDS011;11281;52.194;21.006;2023-05-02T23:27:37;3.70;;;2.40;;
22223;SDS011;11281;52.194;21.006;2023-05-02T23:31:39;5.00;;;2.70;;
22223;SDS011;11281;52.194;21.006;2023-05-02T23:35:41;5.00;;;2.25;;
22223;SDS011;11281;52.194;21.006;2023-05-02T23:39:43;5.15;;;2.33;;
22223;SDS011;11281;52.194;21.006;2023-05-02T23:43:45;3.88;;;2.20;;
22223;SDS011;11281;52.194;21.006;2023-05-02T23:47:46;5.13;;;2.45;;
22223;SDS011;11281;52.194;21.006;2023-05-02T23:51:50;5.80;;;2.22;;
22223;SDS011;11281;52.194;21.006;2023-05-02T23:55:51;4.75;;;3.05;;
22223;SDS011;11281;52.194;21.006;2023-05-02T23:59:53;2.25;;;2.00;;
